Time;durP1;ratioP1;P1;durP2;ratioP2;P2;SDS_P1;SDS_P2;PMS_P1;PMS_P2;Temp;Humidity;BMP_temperature;BMP_pressure;BME280_temperature;BME280_humidity;BME280_pressure;Samples;Min_cycle;Max_cycle;Signal;HPM_P1;HPM_P2
2022/07/30 00:01:33;;;;;;;3.70;1.60;;;;;;;25.24;43.40;100714.83;117112;1188;22087;-58
2022/07/30 00:04:02;;;;;;;3.70;1.60;;;;;;;25.24;43.48;100715.34;117075;1185;21844;-57
2022/07/30 00:06:29;;;;;;;5.70;2.10;;;;;;;25.23;43.39;100715.92;117130;1188;21896;-57
2022/07/30 00:08:57;;;;;;;4.40;1.30;;;;;;;25.24;43.40;100718.38;117114;1188;23576;-58
2022/07/30 00:11:24;;;;;;;3.40;1.50;;;;;;;25.23;43.43;100715.04;116948;1186;22929;-61
2022/07/30 00:13:54;;;;;;;3.10;1.30;;;;;;;25.24;43.35;100713.94;117102;1188;22098;-57
2022/07/30 00:16:21;;;;;;;7.30;1.60;;;;;;;25.23;43.39;100714.15;117092;1182;21866;-61
2022/07/30 00:18:48;;;;;;;3.00;1.40;;;;;;;25.22;43.29;100718.55;117193;1186;21995;-61
2022/07/30 00:21:17;;;;;;;4.20;1.70;;;;;;;25.20;43.31;100717.80;117143;1187;22910;-57
2022/07/30 00:24:01;;;;;;;3.20;1.20;;;;;;;25.17;43.28;100714.24;117101;1185;21848;-58
2022/07/30 00:26:28;;;;;;;3.80;1.70;;;;;;;25.13;43.39;100715.40;117126;1188;21848;-60
2022/07/30 00:28:55;;;;;;;4.70;1.90;;;;;;;25.12;43.57;100713.65;117227;1186;23468;-61
2022/07/30 00:31:22;;;;;;;5.10;1.40;;;;;;;25.12;43.52;100709.86;117124;1186;22918;-58
2022/07/30 00:33:49;;;;;;;3.50;1.50;;;;;;;25.05;43.55;100704.27;117104;1186;24162;-58
2022/07/30 00:36:16;;;;;;;2.70;1.30;;;;;;;25.01;43.77;100701.52;117094;1185;21980;-61
2022/07/30 00:38:43;;;;;;;3.00;1.30;;;;;;;24.96;43.79;100698.42;117185;1183;23631;-61
2022/07/30 00:41:10;;;;;;;3.70;1.60;;;;;;;24.93;43.77;100698.98;117175;1185;23461;-60
2022/07/30 00:43:38;;;;;;;4.20;1.50;;;;;;;24.88;43.89;100696.58;117109;1185;22998;-58
2022/07/30 00:46:05;;;;;;;6.30;1.50;;;;;;;24.86;43.97;100694.41;117137;1186;22934;-61
2022/07/30 00:48:32;;;;;;;3.60;1.30;;;;;;;24.83;43.96;100693.01;117143;1187;22179;-61
2022/07/30 00:50:59;;;;;;;4.30;1.50;;;;;;;24.80;44.07;100691.77;117270;1183;23600;-57
2022/07/30 00:53:26;;;;;;;5.30;1.70;;;;;;;24.76;44.06;100692.71;117094;1186;22931;-61
2022/07/30 00:55:52;;;;;;;6.80;1.50;;;;;;;24.73;44.17;100687.92;117178;1188;24274;-61
2022/07/30 00:58:19;;;;;;;3.30;1.50;;;;;;;24.72;44.21;100689.60;117150;1186;22654;-57
2022/07/30 01:00:47;;;;;;;4.80;1.50;;;;;;;24.72;44.30;100684.23;117111;1182;22974;-61
2022/07/30 01:03:14;;;;;;;3.00;1.70;;;;;;;24.74;44.31;100682.80;117156;1188;22932;-61
2022/07/30 01:05:41;;;;;;;3.80;1.50;;;;;;;24.76;44.28;100680.91;117271;1186;23554;-61
2022/07/30 01:08:08;;;;;;;5.50;1.60;;;;;;;24.77;44.29;100680.09;117112;1186;22937;-58
2022/07/30 01:10:35;;;;;;;4.30;1.70;;;;;;;24.78;44.26;100678.98;117237;1186;24785;-58
2022/07/30 01:13:03;;;;;;;4.50;1.90;;;;;;;24.77;44.33;100676.52;117084;1187;23579;-57
2022/07/30 01:15:30;;;;;;;3.00;1.70;;;;;;;24.75;44.26;100675.20;117350;1186;24370;-63
2022/07/30 01:17:59;;;;;;;3.70;1.50;;;;;;;24.75;44.21;100677.06;116974;1186;24330;-57
2022/07/30 01:20:56;;;;;;;3.10;1.80;;;;;;;24.79;44.35;100676.00;117073;1186;21860;-62
2022/07/30 01:23:32;;;;;;;6.80;1.70;;;;;;;24.80;44.36;100672.77;117081;1188;22846;-61
2022/07/30 01:26:02;;;;;;;3.30;1.90;;;;;;;24.76;44.42;100669.02;117146;1186;23557;-60
2022/07/30 01:28:37;;;;;;;3.20;1.90;;;;;;;24.75;44.44;100670.02;117074;1183;23003;-57
2022/07/30 01:31:04;;;;;;;3.80;1.90;;;;;;;24.74;44.51;100672.39;117290;1185;22625;-57
2022/07/30 01:33:32;;;;;;;5.50;2.50;;;;;;;24.80;44.34;100670.41;117053;1187;22093;-58
2022/07/30 01:35:59;;;;;;;3.50;2.10;;;;;;;24.83;44.39;100671.85;116987;1186;24891;-61
2022/07/30 01:38:26;;;;;;;4.90;1.90;;;;;;;24.81;44.47;100668.53;116863;1189;23570;-58
2022/07/30 01:40:56;;;;;;;4.40;1.70;;;;;;;24.78;44.51;100667.64;117133;1186;21877;-61
2022/07/30 01:43:23;;;;;;;3.70;1.70;;;;;;;24.79;44.47;100665.66;116845;1186;24175;-57
2022/07/30 01:45:51;;;;;;;6.40;2.10;;;;;;;24.79;44.46;100658.81;116982;1189;23599;-57
2022/07/30 01:48:19;;;;;;;2.80;1.70;;;;;;;24.78;44.31;100651.30;117182;1186;23586;-57
2022/07/30 01:50:48;;;;;;;2.60;1.70;;;;;;;24.78;44.43;100647.56;117075;1188;23653;-57
2022/07/30 01:53:16;;;;;;;6.30;2.20;;;;;;;24.77;44.42;100644.41;117118;1189;22746;-58
2022/07/30 01:55:43;;;;;;;3.60;2.00;;;;;;;24.76;44.46;100645.38;117039;1187;24229;-61
2022/07/30 01:58:11;;;;;;;3.70;2.00;;;;;;;24.74;44.49;100645.17;116804;1186;24262;-57
2022/07/30 02:00:39;;;;;;;6.30;2.00;;;;;;;24.74;44.43;100645.31;117159;1189;24179;-58
2022/07/30 02:03:07;;;;;;;3.90;2.60;;;;;;;24.73;44.48;100643.84;117179;1183;22082;-58
2022/07/30 02:05:35;;;;;;;3.60;1.80;;;;;;;24.69;44.47;100645.50;117035;1189;22919;-57
2022/07/30 02:08:16;;;;;;;6.80;2.20;;;;;;;24.61;44.54;100644.91;117140;1187;23554;-61
2022/07/30 02:10:45;;;;;;;4.30;1.80;;;;;;;24.57;44.55;100642.48;117175;1177;22932;-58
2022/07/30 02:13:15;;;;;;;5.10;2.20;;;;;;;24.56;44.60;100644.38;117124;1185;23570;-57
2022/07/30 02:15:45;;;;;;;5.90;2.30;;;;;;;24.54;44.48;100642.67;116975;1187;22948;-60
2022/07/30 02:18:47;;;;;;;7.00;1.90;;;;;;;24.53;44.57;100644.73;117023;1188;23468;-58
2022/07/30 02:21:17;;;;;;;5.80;1.80;;;;;;;24.50;44.64;100646.14;117745;1187;21849;-62
2022/07/30 02:23:44;;;;;;;5.10;2.00;;;;;;;24.48;44.55;100645.05;117163;1186;22929;-62
2022/07/30 02:26:14;;;;;;;3.80;2.00;;;;;;;24.47;44.67;100642.40;116993;1185;23479;-58
2022/07/30 02:28:41;;;;;;;;;;;;;;;24.46;44.80;100643.04;117271;1187;23557;-63
2022/07/30 02:31:08;;;;;;;3.90;2.20;;;;;;;24.45;44.87;100646.70;117125;1186;21896;-62
2022/07/30 02:33:43;;;;;;;9.40;3.40;;;;;;;24.45;44.89;100647.23;117090;1189;21845;-62
2022/07/30 02:36:14;;;;;;;4.00;1.90;;;;;;;24.45;44.93;100643.44;117122;1188;21868;-58
2022/07/30 02:38:41;;;;;;;5.10;2.20;;;;;;;24.46;45.05;100644.85;117111;1186;24155;-62
2022/07/30 02:41:08;;;;;;;4.40;1.90;;;;;;;24.45;45.14;100640.39;117016;1187;21824;-58
2022/07/30 02:43:36;;;;;;;7.10;2.00;;;;;;;24.44;45.17;100640.47;116872;1189;21970;-59
2022/07/30 02:46:03;;;;;;;4.50;2.10;;;;;;;24.45;45.17;100638.25;117190;1183;23480;-58
2022/07/30 02:48:31;;;;;;;5.60;1.90;;;;;;;24.46;45.17;100638.23;116936;1186;24166;-58
2022/07/30 02:51:00;;;;;;;10.30;2.40;;;;;;;24.47;45.26;100636.92;116990;1187;21889;-58
2022/07/30 02:53:27;;;;;;;10.30;2.90;;;;;;;24.47;45.22;100635.04;116875;1186;24167;-58
2022/07/30 02:55:54;;;;;;;4.60;2.00;;;;;;;24.49;45.28;100632.42;117058;1186;24277;-58
2022/07/30 02:58:22;;;;;;;8.00;2.00;;;;;;;24.52;45.30;100635.63;116918;1188;22649;-62
2022/07/30 03:00:51;;;;;;;5.80;2.10;;;;;;;24.55;45.15;100639.59;117123;1182;23490;-62
2022/07/30 03:03:18;;;;;;;6.20;2.60;;;;;;;24.58;45.15;100641.72;117109;1189;21895;-62
2022/07/30 03:05:45;;;;;;;9.10;2.00;;;;;;;24.60;45.17;100651.04;117115;1188;23554;-63
2022/07/30 03:08:12;;;;;;;5.40;2.00;;;;;;;24.63;45.33;100649.10;116942;1186;23504;-62
2022/07/30 03:10:44;;;;;;;6.40;1.90;;;;;;;24.65;45.30;100651.10;116904;1189;21950;-59
2022/07/30 03:13:11;;;;;;;5.90;2.20;;;;;;;24.66;45.19;100652.46;117246;1185;22644;-58
2022/07/30 03:15:43;;;;;;;4.20;1.90;;;;;;;24.68;45.26;100653.79;117072;1186;21848;-58
2022/07/30 03:18:11;;;;;;;8.30;1.80;;;;;;;24.71;45.43;100655.41;117133;1187;21855;-62
2022/07/30 03:20:38;;;;;;;5.70;1.80;;;;;;;24.72;45.34;100654.63;117222;1185;22621;-58
2022/07/30 03:23:06;;;;;;;5.10;1.90;;;;;;;24.72;45.35;100654.60;117061;1186;23569;-61
2022/07/30 03:25:32;;;;;;;3.70;1.80;;;;;;;24.74;45.39;100658.04;117166;1188;22819;-58
2022/07/30 03:28:00;;;;;;;6.90;2.10;;;;;;;24.77;45.36;100656.23;117024;1189;21919;-62
2022/07/30 03:30:27;;;;;;;9.60;2.80;;;;;;;24.81;45.25;100655.61;117223;1185;21878;-58
2022/07/30 03:32:54;;;;;;;11.20;2.30;;;;;;;24.87;45.26;100652.75;117052;1185;22157;-57
2022/07/30 03:35:23;;;;;;;11.60;2.10;;;;;;;24.90;45.17;100657.02;117103;1183;21890;-61
2022/07/30 03:37:52;;;;;;;5.90;1.70;;;;;;;24.93;45.25;100657.85;117213;1185;21869;-57
2022/07/30 03:40:19;;;;;;;5.10;1.90;;;;;;;24.98;45.30;100661.68;117140;1189;23458;-57
2022/07/30 03:42:46;;;;;;;4.30;1.70;;;;;;;25.02;45.20;100659.95;116822;1189;22625;-58
2022/07/30 03:45:13;;;;;;;3.60;1.80;;;;;;;25.07;45.11;100656.20;117044;1189;23573;-62
2022/07/30 03:47:41;;;;;;;4.10;1.70;;;;;;;25.13;45.14;100655.45;116982;1186;24239;-60
2022/07/30 03:50:08;;;;;;;6.10;2.10;;;;;;;25.18;45.08;100652.77;117184;1186;21909;-62
2022/07/30 03:52:37;;;;;;;4.30;1.80;;;;;;;25.22;45.04;100649.41;117185;1182;23539;-58
2022/07/30 03:55:08;;;;;;;7.30;1.80;;;;;;;25.28;44.92;100645.05;117270;1188;21854;-62
2022/07/30 03:57:35;;;;;;;4.70;1.70;;;;;;;25.33;44.81;100641.65;117144;1182;21876;-58
2022/07/30 04:00:07;;;;;;;15.00;2.60;;;;;;;25.39;44.81;100643.56;117187;1180;23577;-62
2022/07/30 04:02:44;;;;;;;7.90;2.00;;;;;;;25.43;44.86;100638.45;117143;1188;23555;-56
2022/07/30 04:05:12;;;;;;;5.00;1.90;;;;;;;25.49;44.72;100637.31;117237;1186;22968;-61
2022/07/30 04:07:39;;;;;;;7.40;1.70;;;;;;;25.56;44.69;100635.79;117222;1183;23529;-61
2022/07/30 04:10:11;;;;;;;5.50;1.80;;;;;;;25.62;44.59;100631.39;117156;1188;22033;-60
2022/07/30 04:12:39;;;;;;;6.60;1.70;;;;;;;25.69;44.58;100634.28;117115;1187;22253;-61
2022/07/30 04:15:06;;;;;;;3.50;1.90;;;;;;;25.78;44.51;100629.72;117200;1185;22158;-61
2022/07/30 04:17:57;;;;;;;5.10;1.70;;;;;;;25.87;44.37;100631.58;117097;1182;21859;-55
2022/07/30 04:20:28;;;;;;;6.70;1.60;;;;;;;25.97;44.22;100632.11;117206;1185;21846;-61
2022/07/30 04:22:56;;;;;;;4.80;1.90;;;;;;;26.04;44.03;100631.93;117072;1185;22085;-62
2022/07/30 04:25:23;;;;;;;5.40;1.90;;;;;;;26.12;43.94;100632.84;117338;1182;23689;-63
2022/07/30 04:27:50;;;;;;;4.70;2.00;;;;;;;26.19;43.85;100634.84;117056;1187;21895;-62
2022/07/30 04:30:30;;;;;;;3.40;2.00;;;;;;;26.21;43.82;100637.98;116979;1185;23451;-57
2022/07/30 04:32:57;;;;;;;3.60;1.70;;;;;;;26.25;43.72;100642.66;117209;1184;21962;-61
2022/07/30 04:35:31;;;;;;;3.50;1.70;;;;;;;26.31;43.66;100646.16;117094;1183;23702;-62
2022/07/30 04:38:18;;;;;;;3.80;1.60;;;;;;;26.39;43.56;100640.75;117116;1186;22919;-62
2022/07/30 04:40:45;;;;;;;3.70;1.60;;;;;;;26.46;43.40;100639.54;117072;1189;22723;-56
2022/07/30 04:43:12;;;;;;;4.20;1.70;;;;;;;26.51;43.40;100639.80;116995;1187;23612;-56
2022/07/30 04:45:40;;;;;;;3.30;1.80;;;;;;;26.57;43.30;100640.46;117138;1187;22064;-56
2022/07/30 04:48:07;;;;;;;3.50;1.60;;;;;;;26.63;43.18;100640.91;117191;1183;22944;-62
2022/07/30 04:50:34;;;;;;;6.20;2.00;;;;;;;26.70;43.17;100643.24;117108;1185;23287;-63
2022/07/30 04:53:01;;;;;;;6.40;1.90;;;;;;;26.79;43.02;100644.41;117387;1186;21844;-63
2022/07/30 04:55:29;;;;;;;3.80;1.90;;;;;;;26.85;42.79;100647.23;116985;1186;23580;-63
2022/07/30 04:57:56;;;;;;;4.50;1.70;;;;;;;26.90;42.67;100644.85;116896;1187;22848;-63
2022/07/30 05:00:23;;;;;;;4.70;1.80;;;;;;;26.94;42.60;100650.27;117109;1188;21858;-63
2022/07/30 05:02:50;;;;;;;5.30;2.30;;;;;;;27.00;42.56;100651.64;117036;1186;22831;-63
2022/07/30 05:05:17;;;;;;;5.10;1.90;;;;;;;27.06;42.55;100651.03;117064;1188;22623;-63
2022/07/30 05:07:44;;;;;;;4.60;2.00;;;;;;;27.14;42.50;100651.80;117098;1189;21854;-65
2022/07/30 05:10:11;;;;;;;21.90;3.30;;;;;;;27.26;42.20;100653.79;117149;1182;23676;-59
2022/07/30 05:12:38;;;;;;;11.30;2.30;;;;;;;27.36;42.41;100654.44;117434;1186;22811;-64
2022/07/30 05:15:07;;;;;;;4.30;2.00;;;;;;;27.47;42.21;100655.55;117094;1183;22171;-64
2022/07/30 05:17:34;;;;;;;5.40;2.30;;;;;;;27.58;42.18;100656.16;117131;1182;22651;-65
2022/07/30 05:20:01;;;;;;;4.90;1.90;;;;;;;27.69;42.03;100657.80;116968;1185;22939;-58
2022/07/30 05:22:29;;;;;;;5.80;2.00;;;;;;;27.80;41.88;100663.23;117156;1185;23779;-65
2022/07/30 05:24:56;;;;;;;4.90;1.90;;;;;;;27.92;41.72;100664.09;117121;1183;23580;-64
2022/07/30 05:27:23;;;;;;;6.50;2.00;;;;;;;28.17;41.65;100661.17;117140;1188;22643;-59
2022/07/30 05:29:50;;;;;;;3.70;1.70;;;;;;;28.22;41.55;100662.63;117110;1182;22972;-59
2022/07/30 05:32:21;;;;;;;4.80;1.80;;;;;;;28.20;41.23;100665.06;116952;1189;23571;-63
2022/07/30 05:34:52;;;;;;;4.50;2.10;;;;;;;28.20;41.28;100667.42;117166;1183;21875;-64
2022/07/30 05:37:19;;;;;;;4.10;1.80;;;;;;;28.21;41.20;100671.88;117081;1188;22079;-64
2022/07/30 05:39:47;;;;;;;4.00;2.10;;;;;;;28.21;41.10;100673.80;117113;1185;23705;-65
2022/07/30 05:42:29;;;;;;;6.80;2.00;;;;;;;28.19;41.02;100676.69;117122;1186;24159;-64
2022/07/30 05:44:59;;;;;;;5.20;2.20;;;;;;;28.16;40.96;100680.39;116882;1187;21923;-58
2022/07/30 05:47:26;;;;;;;4.60;1.90;;;;;;;28.22;40.82;100684.80;117712;1186;21862;-58
2022/07/30 05:49:53;;;;;;;4.90;2.20;;;;;;;28.19;40.87;100686.63;117084;1185;23652;-58
2022/07/30 05:52:20;;;;;;;5.90;2.20;;;;;;;28.24;40.85;100688.55;117161;1186;23558;-64
2022/07/30 05:54:47;;;;;;;4.80;1.90;;;;;;;28.27;40.73;100689.01;117188;1186;21870;-58
2022/07/30 05:57:14;;;;;;;4.40;1.90;;;;;;;28.29;40.58;100693.02;117021;1186;22929;-64
2022/07/30 05:59:41;;;;;;;5.80;2.40;;;;;;;28.33;40.50;100693.09;117083;1182;21953;-63
2022/07/30 06:02:08;;;;;;;5.70;2.20;;;;;;;28.33;40.50;100694.52;117036;1189;22298;-64
2022/07/30 06:04:35;;;;;;;6.50;2.10;;;;;;;28.28;40.43;100687.69;117152;1182;22937;-63
2022/07/30 06:07:02;;;;;;;3.90;1.90;;;;;;;28.31;40.51;100686.01;117133;1186;22928;-63
2022/07/30 06:09:29;;;;;;;5.50;1.90;;;;;;;28.34;40.44;100686.30;117288;1186;21867;-64
2022/07/30 06:12:04;;;;;;;4.30;1.80;;;;;;;28.37;40.32;100681.73;117152;1186;21857;-64
2022/07/30 06:14:31;;;;;;;4.00;1.80;;;;;;;28.40;40.42;100681.90;117298;1185;22857;-64
2022/07/30 06:16:59;;;;;;;6.00;2.40;;;;;;;28.39;40.53;100682.98;117280;1186;23587;-57
2022/07/30 06:19:27;;;;;;;4.50;2.20;;;;;;;28.40;40.35;100683.80;117194;1186;23004;-63
2022/07/30 06:21:54;;;;;;;6.00;2.30;;;;;;;28.42;40.55;100684.25;117188;1182;23630;-56
2022/07/30 06:24:33;;;;;;;4.90;2.50;;;;;;;28.50;40.67;100683.91;117181;1186;23461;-62
2022/07/30 06:27:00;;;;;;;4.50;2.10;;;;;;;28.46;41.16;100686.44;117229;1180;22924;-63
2022/07/30 06:29:27;;;;;;;3.30;2.20;;;;;;;28.45;41.35;100685.63;117278;1185;22327;-58
2022/07/30 06:31:55;;;;;;;6.50;2.40;;;;;;;28.46;41.47;100686.09;117147;1185;22929;-57
2022/07/30 06:34:21;;;;;;;5.20;2.60;;;;;;;28.56;41.43;100683.40;117189;1186;22869;-63
2022/07/30 06:36:49;;;;;;;6.20;3.00;;;;;;;28.43;41.09;100679.27;117114;1186;23660;-57
2022/07/30 06:39:16;;;;;;;4.30;2.60;;;;;;;28.40;41.09;100677.38;117206;1187;21857;-63
2022/07/30 06:42:03;;;;;;;4.80;2.10;;;;;;;28.43;41.17;100671.15;117609;1186;22619;-58
2022/07/30 06:44:30;;;;;;;4.80;2.30;;;;;;;28.47;40.95;100669.67;117089;1189;21873;-58
2022/07/30 06:46:57;;;;;;;4.00;2.30;;;;;;;28.49;40.78;100667.31;117195;1182;23557;-57
2022/07/30 06:49:31;;;;;;;4.80;2.70;;;;;;;28.53;40.78;100668.14;117193;1186;21848;-57
2022/07/30 06:51:59;;;;;;;4.50;2.70;;;;;;;28.57;40.81;100665.82;117211;1182;22822;-57
2022/07/30 06:54:27;;;;;;;7.80;2.90;;;;;;;28.63;40.88;100664.05;117203;1186;23570;-57
2022/07/30 06:56:54;;;;;;;6.90;2.80;;;;;;;28.74;40.71;100664.94;117149;1185;21908;-58
2022/07/30 06:59:22;;;;;;;8.90;2.50;;;;;;;28.92;40.92;100663.30;117244;1183;24176;-64
2022/07/30 07:01:49;;;;;;;15.00;3.80;;;;;;;29.15;40.74;100659.48;117248;1182;23483;-63
2022/07/30 07:04:16;;;;;;;13.80;4.70;;;;;;;29.43;40.63;100656.94;117235;1186;23667;-63
2022/07/30 07:06:43;;;;;;;11.70;3.40;;;;;;;29.79;40.75;100651.65;117194;1189;22917;-58
2022/07/30 07:09:10;;;;;;;5.00;2.80;;;;;;;30.17;40.33;100648.43;117193;1182;21841;-58
2022/07/30 07:11:38;;;;;;;7.40;3.10;;;;;;;30.56;39.93;100645.20;117138;1189;23003;-58
2022/07/30 07:14:05;;;;;;;7.90;3.20;;;;;;;31.04;40.00;100647.63;117095;1183;23634;-64
2022/07/30 07:16:33;;;;;;;17.80;3.30;;;;;;;31.53;39.58;100642.11;116973;1182;22947;-64
2022/07/30 07:19:01;;;;;;;5.10;2.40;;;;;;;31.95;38.92;100643.86;116863;1189;22937;-65
2022/07/30 07:21:29;;;;;;;5.30;2.50;;;;;;;32.26;38.49;100637.02;116860;1185;26629;-64
2022/07/30 07:23:56;;;;;;;8.00;2.40;;;;;;;32.50;38.06;100630.59;117067;1188;22797;-59
2022/07/30 07:26:23;;;;;;;6.50;2.50;;;;;;;32.69;37.64;100630.29;117098;1185;21854;-63
2022/07/30 07:28:50;;;;;;;6.40;2.00;;;;;;;32.82;37.23;100629.17;117149;1182;23584;-57
2022/07/30 07:31:17;;;;;;;8.00;2.30;;;;;;;32.92;37.04;100632.52;116976;1182;22885;-57
2022/07/30 07:34:04;;;;;;;6.20;2.70;;;;;;;33.09;36.50;100630.83;117005;1182;23544;-63
2022/07/30 07:36:33;;;;;;;8.80;2.60;;;;;;;33.18;36.62;100629.86;117186;1185;21860;-64
2022/07/30 07:39:00;;;;;;;5.40;2.20;;;;;;;33.29;36.37;100629.59;117180;1186;22621;-58
2022/07/30 07:41:28;;;;;;;5.00;2.30;;;;;;;33.46;36.13;100622.92;117104;1187;21853;-58
2022/07/30 07:44:14;;;;;;;5.70;2.40;;;;;;;33.64;36.09;100620.68;116972;1187;21871;-58
2022/07/30 07:46:42;;;;;;;4.70;2.60;;;;;;;33.98;35.88;100619.09;117096;1183;23647;-59
2022/07/30 07:49:09;;;;;;;7.30;2.20;;;;;;;34.33;35.72;100619.43;116946;1186;21848;-64
2022/07/30 07:51:36;;;;;;;6.40;2.40;;;;;;;34.67;35.50;100621.55;117073;1182;21858;-64
2022/07/30 07:54:15;;;;;;;6.60;2.10;;;;;;;34.98;35.92;100620.30;117094;1188;21856;-64
2022/07/30 07:56:50;;;;;;;4.90;1.90;;;;;;;35.33;35.33;100621.36;117107;1183;23598;-64
2022/07/30 07:59:18;;;;;;;4.10;1.80;;;;;;;35.64;34.74;100621.10;116977;1189;23582;-64
2022/07/30 08:01:46;;;;;;;6.20;1.90;;;;;;;35.80;34.58;100623.73;117135;1187;21857;-64
2022/07/30 08:04:16;;;;;;;7.10;2.10;;;;;;;36.02;34.87;100624.61;117142;1186;21864;-64
2022/07/30 08:06:43;;;;;;;4.30;1.90;;;;;;;36.28;34.77;100622.35;117194;1185;22928;-64
2022/07/30 08:09:11;;;;;;;5.70;2.30;;;;;;;36.51;34.34;100621.95;117008;1187;21854;-63
2022/07/30 08:11:38;;;;;;;4.10;2.00;;;;;;;36.79;34.06;100622.88;117062;1185;22925;-63
2022/07/30 08:14:05;;;;;;;5.40;2.40;;;;;;;37.03;33.88;100625.43;117016;1186;21885;-63
2022/07/30 08:16:32;;;;;;;8.00;2.30;;;;;;;37.23;33.43;100625.56;117077;1187;21866;-64
2022/07/30 08:18:59;;;;;;;5.10;2.50;;;;;;;37.43;33.41;100623.70;117084;1183;21995;-63
2022/07/30 08:21:26;;;;;;;6.00;2.10;;;;;;;37.61;33.09;100623.40;117107;1187;21856;-63
2022/07/30 08:23:53;;;;;;;4.10;1.70;;;;;;;37.77;32.76;100621.77;117116;1186;21860;-63
2022/07/30 08:26:20;;;;;;;5.50;2.10;;;;;;;37.94;32.49;100620.94;117146;1183;21875;-63
2022/07/30 08:28:47;;;;;;;4.00;1.90;;;;;;;38.09;32.45;100620.55;117276;1182;22926;-63
2022/07/30 08:31:15;;;;;;;3.40;1.80;;;;;;;38.28;32.30;100619.47;117123;1185;22530;-63
2022/07/30 08:33:42;;;;;;;4.60;1.80;;;;;;;38.51;31.78;100615.19;117049;1185;21859;-63
2022/07/30 08:36:10;;;;;;;3.60;1.70;;;;;;;38.70;31.50;100619.92;117098;1184;21859;-63
2022/07/30 08:38:37;;;;;;;4.20;1.90;;;;;;;38.94;31.14;100616.48;117196;1189;21908;-63
2022/07/30 08:41:04;;;;;;;3.10;1.50;;;;;;;39.13;30.67;100610.56;117231;1185;23589;-64
2022/07/30 08:43:32;;;;;;;6.00;1.40;;;;;;;39.28;30.10;100606.76;117080;1186;21867;-63
2022/07/30 08:46:00;;;;;;;8.80;2.00;;;;;;;39.46;29.74;100602.41;116967;1187;21855;-64
2022/07/30 08:48:28;;;;;;;8.50;1.70;;;;;;;39.59;29.73;100597.73;117109;1187;22651;-63
2022/07/30 08:50:55;;;;;;;2.60;1.60;;;;;;;39.69;29.24;100599.80;117087;1187;21869;-64
2022/07/30 08:53:22;;;;;;;3.70;1.50;;;;;;;39.76;28.86;100601.98;117041;1187;21917;-64
2022/07/30 08:55:50;;;;;;;3.00;1.60;;;;;;;39.90;28.73;100601.95;116999;1186;22812;-58
2022/07/30 08:58:29;;;;;;;3.90;2.00;;;;;;;40.03;28.27;100605.02;117030;1186;21881;-59
2022/07/30 09:00:56;;;;;;;7.10;2.30;;;;;;;40.12;28.05;100607.17;117143;1186;21864;-59
2022/07/30 09:03:24;;;;;;;5.00;1.80;;;;;;;40.20;28.02;100604.90;117116;1186;22947;-58
2022/07/30 09:05:51;;;;;;;6.60;1.90;;;;;;;40.29;27.94;100598.91;117099;1182;23554;-59
2022/07/30 09:08:18;;;;;;;2.70;1.40;;;;;;;40.34;27.73;100601.98;117151;1187;22763;-59
2022/07/30 09:10:48;;;;;;;3.50;1.70;;;;;;;40.37;28.38;100595.73;117088;1185;21858;-59
2022/07/30 09:13:24;;;;;;;3.50;1.70;;;;;;;40.51;28.59;100595.77;117095;1188;21895;-59
2022/07/30 09:15:50;;;;;;;5.20;1.80;;;;;;;40.63;28.50;100590.82;117159;1187;22967;-59
2022/07/30 09:18:31;;;;;;;9.70;2.20;;;;;;;40.62;28.56;100592.30;117229;1185;23541;-60
2022/07/30 09:21:19;;;;;;;4.50;2.00;;;;;;;40.64;29.34;100592.30;117290;1183;23026;-59
2022/07/30 09:24:00;;;;;;;3.80;2.00;;;;;;;40.73;29.52;100592.23;117186;1185;22981;-59
2022/07/30 09:26:29;;;;;;;4.30;1.40;;;;;;;40.91;29.62;100589.91;117050;1186;24172;-59
2022/07/30 09:29:20;;;;;;;2.80;1.50;;;;;;;41.08;30.05;100588.05;117231;1182;21876;-60
2022/07/30 09:32:00;;;;;;;5.30;1.80;;;;;;;41.24;29.13;100587.48;117130;1186;21879;-60
2022/07/30 09:34:32;;;;;;;2.50;1.50;;;;;;;41.35;29.99;100586.63;117286;1183;23437;-58
2022/07/30 09:37:01;;;;;;;4.00;1.90;;;;;;;41.56;30.23;100584.52;117243;1185;21858;-58
2022/07/30 09:39:38;;;;;;;3.70;1.70;;;;;;;41.72;30.34;100580.02;117151;1187;22660;-58
2022/07/30 09:42:20;;;;;;;4.80;1.60;;;;;;;41.91;30.37;100580.29;117097;1182;21959;-58
2022/07/30 09:44:47;;;;;;;3.60;1.50;;;;;;;42.05;30.51;100583.91;117108;1185;23638;-60
2022/07/30 09:47:37;;;;;;;3.30;1.60;;;;;;;42.17;30.33;100581.62;117177;1185;23641;-59
2022/07/30 09:50:13;;;;;;;2.00;1.50;;;;;;;42.17;30.54;100586.81;117244;1183;22486;-58
2022/07/30 09:53:07;;;;;;;5.00;2.00;;;;;;;42.06;29.82;100590.20;117080;1185;23560;-58
2022/07/30 09:55:35;;;;;;;2.80;1.70;;;;;;;42.05;29.89;100583.93;117060;1186;21903;-58
2022/07/30 09:58:07;;;;;;;3.00;1.60;;;;;;;42.02;30.69;100579.77;117066;1187;21858;-58
2022/07/30 10:00:35;;;;;;;5.60;1.70;;;;;;;42.02;31.00;100583.64;117107;1188;22577;-60
2022/07/30 10:03:19;;;;;;;4.00;1.80;;;;;;;42.03;31.70;100579.21;117273;1182;21867;-60
2022/07/30 10:06:00;;;;;;;3.70;1.90;;;;;;;41.92;31.71;100578.67;117023;1182;21854;-60
2022/07/30 10:08:49;;;;;;;4.00;1.90;;;;;;;41.75;31.98;100578.34;117177;1185;23590;-59
2022/07/30 10:11:19;;;;;;;5.40;1.90;;;;;;;41.63;32.13;100579.47;117322;1182;22636;-58
2022/07/30 10:13:52;;;;;;;5.50;1.70;;;;;;;41.39;31.76;100580.02;117094;1182;23464;-59
2022/07/30 10:16:19;;;;;;;2.90;1.80;;;;;;;41.13;32.55;100576.52;117104;1185;21861;-59
2022/07/30 10:18:49;;;;;;;4.00;2.00;;;;;;;41.04;32.70;100572.94;117146;1182;23571;-59
2022/07/30 10:21:17;;;;;;;2.90;1.60;;;;;;;41.03;32.58;100573.46;117208;1186;21858;-59
2022/07/30 10:23:44;;;;;;;5.10;2.00;;;;;;;41.06;33.06;100573.48;117094;1188;21846;-59
2022/07/30 10:26:16;;;;;;;2.60;1.70;;;;;;;41.20;32.63;100568.77;117100;1188;21869;-59
2022/07/30 10:28:44;;;;;;;3.90;1.70;;;;;;;41.24;32.65;100576.94;117198;1186;22915;-59
2022/07/30 10:31:11;;;;;;;6.40;2.00;;;;;;;41.30;32.71;100574.88;117237;1186;22538;-59
2022/07/30 10:33:58;;;;;;;4.10;1.90;;;;;;;41.27;32.92;100574.55;117169;1188;21995;-58
2022/07/30 10:36:25;;;;;;;3.50;1.70;;;;;;;41.14;31.66;100570.30;117169;1181;22624;-58
2022/07/30 10:38:52;;;;;;;3.20;2.30;;;;;;;40.79;31.94;100568.19;117047;1185;21933;-64
2022/07/30 10:41:28;;;;;;;6.10;1.90;;;;;;;40.72;32.69;100564.56;116952;1188;23084;-58
2022/07/30 10:44:47;;;;;;;5.10;1.60;;;;;;;40.83;31.24;100556.27;117060;1187;22110;-63
2022/07/30 10:47:17;;;;;;;3.20;1.80;;;;;;;40.69;31.67;100554.19;117155;1186;21858;-58
2022/07/30 10:50:02;;;;;;;;;;;;;;;40.69;30.95;100553.95;117066;1183;23541;-58
2022/07/30 10:52:43;;;;;;;4.20;1.90;;;;;;;40.75;31.85;100549.61;117505;1185;21858;-58
2022/07/30 10:55:14;;;;;;;3.60;1.90;;;;;;;40.88;31.62;100550.19;117229;1186;22915;-63
2022/07/30 10:58:03;;;;;;;2.70;1.80;;;;;;;40.87;31.43;100549.60;117056;1187;22903;-63
2022/07/30 11:00:33;;;;;;;3.30;1.70;;;;;;;40.58;30.15;100550.09;117279;1185;22965;-58
2022/07/30 11:03:10;;;;;;;6.20;2.00;;;;;;;40.20;31.21;100552.86;117131;1182;22641;-59
2022/07/30 11:05:44;;;;;;;3.30;1.60;;;;;;;39.85;31.25;100549.43;117091;1186;21858;-58
2022/07/30 11:08:30;;;;;;;3.00;2.00;;;;;;;39.36;31.37;100547.38;117163;1186;21864;-62
2022/07/30 11:11:03;;;;;;;3.20;1.90;;;;;;;39.04;32.40;100547.43;117144;1185;23059;-63
2022/07/30 11:14:01;;;;;;;5.00;1.70;;;;;;;39.01;32.78;100546.23;117160;1189;23560;-59
2022/07/30 11:16:31;;;;;;;6.00;1.90;;;;;;;39.03;32.77;100545.27;117153;1182;23649;-58
2022/07/30 11:19:15;;;;;;;4.60;2.20;;;;;;;38.98;32.90;100541.44;117278;1182;21871;-64
2022/07/30 11:22:24;;;;;;;2.80;1.80;;;;;;;38.91;32.75;100543.33;117180;1182;22662;-64
2022/07/30 11:24:52;;;;;;;3.90;2.10;;;;;;;38.64;31.91;100538.40;117160;1182;23648;-63
2022/07/30 11:27:37;;;;;;;3.20;2.00;;;;;;;38.34;32.37;100536.38;117145;1188;22924;-65
2022/07/30 11:30:17;;;;;;;4.30;1.90;;;;;;;38.20;32.82;100532.98;117145;1180;22955;-60
2022/07/30 11:32:48;;;;;;;4.00;1.80;;;;;;;38.11;32.54;100531.42;117152;1183;22625;-64